createdAt,value
2023-03-06T00:00:43.239Z,19.80
2023-03-06T00:03:10.416Z,20.83
2023-03-06T00:05:37.477Z,22.83
2023-03-06T00:08:04.828Z,19.10
2023-03-06T00:10:32.537Z,19.42
2023-03-06T00:13:02.118Z,16.13
2023-03-06T00:15:29.721Z,18.95
2023-03-06T00:17:56.719Z,17.77
2023-03-06T00:20:24.443Z,19.38
2023-03-06T00:22:51.793Z,17.67
2023-03-06T00:25:21.664Z,16.88
2023-03-06T00:27:49.702Z,20.88
2023-03-06T00:30:19.614Z,17.05
2023-03-06T00:32:46.974Z,19.30
2023-03-06T00:35:15.248Z,23.52
2023-03-06T00:37:43.931Z,19.67
2023-03-06T00:40:14.628Z,25.88
2023-03-06T00:42:41.684Z,28.75
2023-03-06T00:45:09.612Z,18.80
2023-03-06T00:47:36.933Z,16.85
2023-03-06T00:50:04.617Z,16.85
2023-03-06T00:52:31.742Z,18.98
2023-03-06T00:54:58.728Z,18.08
2023-03-06T00:57:25.924Z,23.63
2023-03-06T00:59:53.159Z,27.13
2023-03-06T01:02:21.860Z,22.60
2023-03-06T01:04:48.888Z,23.55
2023-03-06T01:07:15.850Z,19.27
2023-03-06T01:09:44.395Z,23.67
2023-03-06T01:12:11.543Z,19.60
2023-03-06T01:14:39.117Z,26.23
2023-03-06T01:17:06.128Z,23.17
2023-03-06T01:19:33.045Z,21.55
2023-03-06T01:22:00.095Z,19.42
2023-03-06T01:24:27.066Z,23.13
2023-03-06T01:26:56.639Z,20.98
2023-03-06T01:29:23.636Z,19.40
2023-03-06T01:31:50.887Z,21.23
2023-03-06T01:34:18.282Z,24.55
2023-03-06T01:36:45.543Z,20.27
2023-03-06T01:39:12.502Z,19.73
2023-03-06T01:41:39.460Z,21.35
2023-03-06T01:44:06.565Z,23.38
2023-03-06T01:46:42.441Z,21.67
2023-03-06T01:49:15.423Z,18.20
2023-03-06T01:51:55.787Z,22.20
2023-03-06T01:54:31.167Z,22.85
2023-03-06T01:57:04.168Z,18.85
2023-03-06T01:59:35.409Z,19.58
2023-03-06T02:02:03.836Z,23.40
2023-03-06T02:04:31.857Z,20.98
2023-03-06T02:07:00.606Z,17.50
2023-03-06T02:09:30.305Z,19.10
2023-03-06T02:11:57.890Z,23.70
2023-03-06T02:14:25.096Z,20.83
2023-03-06T02:16:52.657Z,20.20
2023-03-06T02:19:32.768Z,16.95
2023-03-06T02:22:00.494Z,23.52
2023-03-06T02:24:33.494Z,18.20
2023-03-06T02:27:03.051Z,22.67
2023-03-06T02:29:32.024Z,19.45
2023-03-06T02:32:02.416Z,17.92
2023-03-06T02:34:29.611Z,22.80
2023-03-06T02:37:02.765Z,22.02
2023-03-06T02:39:33.812Z,24.02
2023-03-06T02:42:01.053Z,18.85
2023-03-06T02:44:33.086Z,22.10
2023-03-06T02:47:00.121Z,17.85
2023-03-06T02:49:27.089Z,23.13
2023-03-06T02:51:54.095Z,23.30
2023-03-06T02:54:21.104Z,21.42
2023-03-06T02:56:48.177Z,18.98
2023-03-06T02:59:15.072Z,19.85
2023-03-06T03:01:42.033Z,25.38
2023-03-06T03:04:09.259Z,22.13
2023-03-06T03:06:37.441Z,20.05
2023-03-06T03:09:04.631Z,20.17
2023-03-06T03:11:31.587Z,20.50
2023-03-06T03:13:59.145Z,20.45
2023-03-06T03:16:28.232Z,19.30
2023-03-06T03:18:58.474Z,21.17
2023-03-06T03:21:26.386Z,23.05
2023-03-06T03:23:55.040Z,31.70
2023-03-06T03:26:22.931Z,22.15
2023-03-06T03:28:57.830Z,20.75
2023-03-06T03:31:24.933Z,23.35
2023-03-06T03:33:52.719Z,23.13
2023-03-06T03:36:21.561Z,21.17
2023-03-06T03:38:49.361Z,16.38
2023-03-06T03:41:16.688Z,22.55
2023-03-06T03:43:43.688Z,20.60
2023-03-06T03:46:11.498Z,24.23
2023-03-06T03:48:39.240Z,21.40
2023-03-06T03:51:13.187Z,23.60
2023-03-06T03:53:44.958Z,18.52
2023-03-06T03:56:14.431Z,21.35
2023-03-06T03:58:50.706Z,21.85
2023-03-06T04:01:18.212Z,20.98
2023-03-06T04:03:45.256Z,17.35
2023-03-06T04:06:14.989Z,21.70
2023-03-06T04:08:42.421Z,25.50
2023-03-06T04:11:09.934Z,20.98
2023-03-06T04:13:37.123Z,24.02
2023-03-06T04:16:06.199Z,27.98
2023-03-06T04:18:35.303Z,25.15
2023-03-06T04:21:05.718Z,25.38
2023-03-06T04:23:33.152Z,24.35
2023-03-06T04:26:00.369Z,22.45
2023-03-06T04:28:27.864Z,26.92
2023-03-06T04:30:55.114Z,30.55
2023-03-06T04:33:23.078Z,18.02
2023-03-06T04:35:50.753Z,19.38
2023-03-06T04:38:23.209Z,18.95
2023-03-06T04:40:50.242Z,20.63
2023-03-06T04:43:17.486Z,23.80
2023-03-06T04:45:44.801Z,16.55
2023-03-06T04:48:18.454Z,20.65
2023-03-06T04:50:45.921Z,18.23
2023-03-06T04:53:14.622Z,19.08
2023-03-06T04:55:41.763Z,17.35
2023-03-06T04:58:08.725Z,21.15
2023-03-06T05:00:35.731Z,19.23
2023-03-06T05:03:02.826Z,20.50
2023-03-06T05:05:30.073Z,19.50
2023-03-06T05:07:57.121Z,23.45
2023-03-06T05:10:24.363Z,22.85
2023-03-06T05:12:51.455Z,28.85
2023-03-06T05:15:18.782Z,24.90
2023-03-06T05:17:47.552Z,18.70
2023-03-06T05:20:15.872Z,24.50
2023-03-06T05:22:44.093Z,28.25
2023-03-06T05:25:11.423Z,22.35
2023-03-06T05:27:38.737Z,23.60
2023-03-06T05:30:10.603Z,23.65
2023-03-06T05:32:38.060Z,22.15
2023-03-06T05:35:06.373Z,21.02
2023-03-06T05:37:34.160Z,20.48
2023-03-06T05:40:01.279Z,25.98
2023-03-06T05:42:31.065Z,26.48
2023-03-06T05:44:58.063Z,26.42
2023-03-06T05:47:25.091Z,27.13
2023-03-06T05:49:51.951Z,21.48
2023-03-06T05:52:18.985Z,23.77
2023-03-06T05:54:50.638Z,26.27
2023-03-06T05:57:19.933Z,25.52
2023-03-06T05:59:47.815Z,24.48
2023-03-06T06:02:15.306Z,33.22
2023-03-06T06:04:42.287Z,28.17
2023-03-06T06:07:13.556Z,21.05
2023-03-06T06:09:40.816Z,19.77
2023-03-06T06:12:08.105Z,33.03
2023-03-06T06:14:35.218Z,28.23
2023-03-06T06:17:02.353Z,24.50
2023-03-06T06:19:31.047Z,21.38
2023-03-06T06:21:58.200Z,28.10
2023-03-06T06:24:26.861Z,24.15
2023-03-06T06:26:56.022Z,22.10
2023-03-06T06:29:23.984Z,18.52
2023-03-06T06:31:51.538Z,21.85
2023-03-06T06:34:19.125Z,19.27
2023-03-06T06:36:46.295Z,20.35
2023-03-06T06:39:18.547Z,29.60
2023-03-06T06:41:59.813Z,25.70
2023-03-06T06:44:32.801Z,21.48
2023-03-06T06:47:21.922Z,28.58
2023-03-06T06:49:51.201Z,20.75
2023-03-06T06:52:19.009Z,27.08
2023-03-06T06:54:46.229Z,23.52
2023-03-06T06:57:13.442Z,24.52
2023-03-06T06:59:40.394Z,26.73
2023-03-06T07:02:07.572Z,27.98
2023-03-06T07:04:34.492Z,25.27
2023-03-06T07:07:01.457Z,25.20
2023-03-06T07:09:31.022Z,18.38
2023-03-06T07:11:58.491Z,25.75
2023-03-06T07:14:25.442Z,29.67
2023-03-06T07:16:52.452Z,33.72
2023-03-06T07:19:19.449Z,24.13
2023-03-06T07:21:46.342Z,29.85
2023-03-06T07:24:13.351Z,23.38
2023-03-06T07:26:40.210Z,20.48
2023-03-06T07:29:07.117Z,21.15
2023-03-06T07:31:34.133Z,21.83
2023-03-06T07:34:03.787Z,26.02
2023-03-06T07:36:32.478Z,33.20
2023-03-06T07:38:59.361Z,23.10
2023-03-06T07:41:26.925Z,37.95
2023-03-06T07:43:53.816Z,28.98
2023-03-06T07:46:20.782Z,25.02
2023-03-06T07:48:47.671Z,26.65
2023-03-06T07:51:20.611Z,25.42
2023-03-06T07:53:48.989Z,24.55
2023-03-06T07:56:16.195Z,21.67
2023-03-06T07:58:45.803Z,24.00
2023-03-06T08:01:18.334Z,26.50
2023-03-06T08:03:46.069Z,26.05
2023-03-06T08:06:17.653Z,30.85
2023-03-06T08:08:46.587Z,28.27
2023-03-06T08:11:15.725Z,21.52
2023-03-06T08:13:43.129Z,21.25
2023-03-06T08:16:10.906Z,25.52
2023-03-06T08:18:39.964Z,29.35
2023-03-06T08:21:13.438Z,28.05
2023-03-06T08:23:41.476Z,34.30
2023-03-06T08:26:12.122Z,23.63
2023-03-06T08:28:39.497Z,23.38
2023-03-06T08:31:21.635Z,25.08
2023-03-06T08:33:48.712Z,26.67
2023-03-06T08:36:15.740Z,22.83
2023-03-06T08:38:42.687Z,21.35
2023-03-06T08:41:09.909Z,24.40
2023-03-06T08:43:36.870Z,28.85
2023-03-06T08:46:03.912Z,24.10
2023-03-06T08:48:30.899Z,29.02
2023-03-06T08:50:57.981Z,30.38
2023-03-06T08:53:40.406Z,24.50
2023-03-06T08:56:25.844Z,28.52
2023-03-06T08:58:53.783Z,34.50
2023-03-06T09:01:24.392Z,34.13
2023-03-06T09:03:54.803Z,26.48
2023-03-06T09:06:22.224Z,29.70
2023-03-06T09:08:52.212Z,28.38
2023-03-06T09:14:15.943Z,42.83
2023-03-06T09:16:43.018Z,28.33
2023-03-06T09:19:10.637Z,29.88
2023-03-06T09:21:37.550Z,28.60
2023-03-06T09:24:04.687Z,27.40
2023-03-06T09:26:45.001Z,25.83
2023-03-06T09:29:13.003Z,26.75
2023-03-06T09:31:40.231Z,38.33
2023-03-06T09:34:07.164Z,32.92
2023-03-06T09:36:45.696Z,40.00
2023-03-06T09:39:20.608Z,34.75
2023-03-06T09:41:50.242Z,28.23
2023-03-06T09:44:20.538Z,32.83
2023-03-06T09:47:00.287Z,30.55
2023-03-06T09:49:44.793Z,29.15
2023-03-06T09:52:17.684Z,32.25
2023-03-06T09:54:50.024Z,33.33
2023-03-06T09:57:58.854Z,28.48
2023-03-06T10:00:34.000Z,27.00
2023-03-06T10:03:24.849Z,29.38
2023-03-06T10:06:21.107Z,30.85
2023-03-06T10:09:15.795Z,35.13
2023-03-06T10:11:55.854Z,38.83
2023-03-06T10:14:35.079Z,27.15
2023-03-06T10:17:02.589Z,30.27
2023-03-06T10:19:36.374Z,37.40
2023-03-06T10:22:33.219Z,36.33
2023-03-06T10:25:28.497Z,29.02
2023-03-06T10:30:36.885Z,20.55
2023-03-06T10:33:42.676Z,23.95
2023-03-06T10:36:16.462Z,22.98
2023-03-06T10:38:45.170Z,24.10
2023-03-06T10:41:12.007Z,21.48
2023-03-06T10:44:06.786Z,22.20
2023-03-06T10:46:37.328Z,19.27
2023-03-06T10:49:23.544Z,23.02
2023-03-06T10:52:18.924Z,22.15
2023-03-06T10:54:46.092Z,19.63
2023-03-06T10:57:30.299Z,16.95
2023-03-06T11:00:01.078Z,19.83
2023-03-06T11:02:41.203Z,20.38
2023-03-06T11:05:21.182Z,22.60
2023-03-06T11:07:57.127Z,23.98
2023-03-06T11:10:24.671Z,16.35
2023-03-06T11:13:19.349Z,25.55
2023-03-06T11:16:06.633Z,17.98
2023-03-06T11:18:42.946Z,18.92
2023-03-06T11:21:34.375Z,21.48
2023-03-06T11:24:21.750Z,23.77
2023-03-06T11:26:56.266Z,18.80
2023-03-06T11:29:43.964Z,22.10
2023-03-06T11:32:39.211Z,19.27
2023-03-06T11:35:12.395Z,23.08
2023-03-06T11:37:58.558Z,25.05
2023-03-06T11:40:37.474Z,29.63
2023-03-06T11:43:23.553Z,23.48
2023-03-06T11:45:57.046Z,28.48
2023-03-06T11:48:43.803Z,25.20
2023-03-06T11:51:27.022Z,22.98
2023-03-06T11:53:55.125Z,23.50
2023-03-06T11:56:32.056Z,30.45
2023-03-06T11:59:08.110Z,25.42
2023-03-06T12:01:47.671Z,23.30
2023-03-06T12:04:37.408Z,20.60
2023-03-06T12:07:21.113Z,22.73
2023-03-06T12:10:12.897Z,19.00
2023-03-06T12:13:11.568Z,20.40
2023-03-06T12:15:52.008Z,25.13
2023-03-06T12:19:00.781Z,24.55
2023-03-06T12:21:44.906Z,28.95
2023-03-06T12:24:24.118Z,26.33
2023-03-06T12:26:53.889Z,26.73
2023-03-06T12:30:05.850Z,22.67
2023-03-06T12:32:56.013Z,22.55
2023-03-06T12:35:34.914Z,26.20
2023-03-06T12:38:26.043Z,22.63
2023-03-06T12:41:08.224Z,23.35
2023-03-06T12:43:50.281Z,20.30
2023-03-06T12:46:24.896Z,24.65
2023-03-06T12:51:59.903Z,26.90
2023-03-06T12:54:31.051Z,24.88
2023-03-06T12:57:00.497Z,19.63
2023-03-06T12:59:48.633Z,26.75
2023-03-06T13:02:30.296Z,24.20
2023-03-06T13:05:03.672Z,24.13
2023-03-06T13:07:42.619Z,22.58
2023-03-06T13:10:48.121Z,27.67
2023-03-06T13:13:35.531Z,24.30
2023-03-06T13:16:12.085Z,21.58
2023-03-06T13:18:42.042Z,21.90
2023-03-06T13:21:42.452Z,18.75
2023-03-06T13:24:26.536Z,25.17
2023-03-06T13:26:58.325Z,39.50
2023-03-06T13:29:37.116Z,24.08
2023-03-06T13:32:04.327Z,28.20
2023-03-06T13:34:31.436Z,22.90
2023-03-06T13:37:17.137Z,22.05
2023-03-06T13:39:57.002Z,19.60
2023-03-06T13:42:29.865Z,22.80
2023-03-06T13:45:06.636Z,23.88
2023-03-06T13:48:30.352Z,19.85
2023-03-06T13:50:48.077Z,19.40
2023-03-06T13:53:26.799Z,24.85
2023-03-06T13:56:03.764Z,26.02
2023-03-06T13:59:02.608Z,30.15
2023-03-06T14:02:00.625Z,19.95
2023-03-06T14:04:38.745Z,14.73
2023-03-06T14:07:08.579Z,21.60
2023-03-06T14:09:43.692Z,14.52
2023-03-06T14:12:39.502Z,23.20
2023-03-06T14:15:17.938Z,18.45
2023-03-06T14:18:01.674Z,21.45
2023-03-06T14:20:35.121Z,29.50
2023-03-06T14:23:15.403Z,21.60
2023-03-06T14:25:44.022Z,17.83
2023-03-06T14:28:26.255Z,23.33
2023-03-06T14:30:57.602Z,14.70
2023-03-06T14:33:50.752Z,21.48
2023-03-06T14:36:21.034Z,23.20
2023-03-06T14:39:05.080Z,24.65
2023-03-06T14:41:34.708Z,27.05
2023-03-06T14:44:23.823Z,17.45
2023-03-06T14:47:11.671Z,32.65
2023-03-06T14:49:38.570Z,18.63
2023-03-06T14:52:05.527Z,22.05
2023-03-06T14:54:37.029Z,21.27
2023-03-06T14:57:13.406Z,18.42
2023-03-06T14:59:56.047Z,19.45
2023-03-06T15:02:28.335Z,20.75
2023-03-06T15:05:00.257Z,20.30
2023-03-06T15:07:30.674Z,24.20
2023-03-06T15:09:59.044Z,20.92
2023-03-06T15:12:33.980Z,20.10
2023-03-06T15:15:08.111Z,28.80
2023-03-06T15:17:45.004Z,19.38
2023-03-06T15:20:38.201Z,17.52
2023-03-06T15:23:17.202Z,19.67
2023-03-06T15:26:33.430Z,21.80
2023-03-06T15:29:08.912Z,26.50
2023-03-06T15:31:39.300Z,24.00
2023-03-06T15:34:11.792Z,17.30
2023-03-06T15:36:41.261Z,19.83
2023-03-06T15:39:28.235Z,21.48
2023-03-06T15:42:04.929Z,22.85
2023-03-06T15:44:32.931Z,20.10
2023-03-06T15:47:08.400Z,26.50
2023-03-06T15:49:38.388Z,15.05
2023-03-06T15:52:08.714Z,24.15
2023-03-06T15:54:36.135Z,21.08
2023-03-06T15:57:05.513Z,17.65
2023-03-06T15:59:43.810Z,20.42
2023-03-06T16:02:22.046Z,15.27
2023-03-06T16:04:49.920Z,19.10
2023-03-06T16:07:16.918Z,21.10
2023-03-06T16:09:44.402Z,23.65
2023-03-06T16:12:21.621Z,22.83
2023-03-06T16:14:49.881Z,27.30
2023-03-06T16:17:17.591Z,24.25
2023-03-06T16:19:44.984Z,24.70
2023-03-06T16:22:12.262Z,16.98
2023-03-06T16:24:39.281Z,19.05
2023-03-06T16:27:07.398Z,12.57
2023-03-06T16:29:35.254Z,21.85
2023-03-06T16:32:02.357Z,18.58
2023-03-06T16:34:29.354Z,14.20
2023-03-06T16:36:56.379Z,17.42
2023-03-06T16:39:24.506Z,25.45
2023-03-06T16:41:51.954Z,27.45
2023-03-06T16:44:19.574Z,21.33
2023-03-06T16:46:48.798Z,20.70
2023-03-06T16:49:24.614Z,23.85
2023-03-06T16:51:52.385Z,19.85
2023-03-06T16:54:20.125Z,26.95
2023-03-06T16:56:47.148Z,23.88
2023-03-06T16:59:14.084Z,27.17
2023-03-06T17:01:45.091Z,29.08
2023-03-06T17:04:12.928Z,32.58
2023-03-06T17:06:41.884Z,21.35
2023-03-06T17:09:11.129Z,29.73
2023-03-06T17:11:43.149Z,26.63
2023-03-06T17:14:10.437Z,29.60
2023-03-06T17:16:40.369Z,27.67
2023-03-06T17:19:08.586Z,23.63
2023-03-06T17:21:38.855Z,30.42
2023-03-06T17:24:06.532Z,20.45
2023-03-06T17:26:33.857Z,20.77
2023-03-06T17:29:00.871Z,27.08
2023-03-06T17:31:28.562Z,23.77
2023-03-06T17:34:00.318Z,24.83
2023-03-06T17:36:28.834Z,25.88
2023-03-06T17:39:00.442Z,31.77
2023-03-06T17:41:27.797Z,23.27
2023-03-06T17:44:01.934Z,24.92
2023-03-06T17:46:29.239Z,25.90
2023-03-06T17:48:56.319Z,28.10
2023-03-06T17:51:23.430Z,28.80
2023-03-06T17:53:52.323Z,25.92
2023-03-06T17:56:19.527Z,20.50
2023-03-06T17:58:46.442Z,30.00
2023-03-06T18:01:19.880Z,22.98
2023-03-06T18:03:49.680Z,24.58
2023-03-06T18:06:17.991Z,25.42
2023-03-06T18:08:46.044Z,18.58
2023-03-06T18:11:13.280Z,25.50
2023-03-06T18:13:42.759Z,22.88
2023-03-06T18:16:12.389Z,24.35
2023-03-06T18:18:39.299Z,26.02
2023-03-06T18:21:09.314Z,26.58
2023-03-06T18:23:37.877Z,22.88
2023-03-06T18:26:13.274Z,25.83
2023-03-06T18:28:42.663Z,28.45
2023-03-06T18:31:27.872Z,25.63
2023-03-06T18:33:57.881Z,24.25
2023-03-06T18:36:26.967Z,26.35
2023-03-06T18:38:54.726Z,23.83
2023-03-06T18:41:22.677Z,27.25
2023-03-06T18:43:54.419Z,23.35
2023-03-06T18:46:22.782Z,27.98
2023-03-06T18:48:50.309Z,32.22
2023-03-06T18:51:19.404Z,24.65
2023-03-06T18:53:46.657Z,28.63
2023-03-06T18:56:20.537Z,26.55
2023-03-06T18:58:48.581Z,35.47
2023-03-06T19:01:15.656Z,28.27
2023-03-06T19:03:43.056Z,24.27
2023-03-06T19:06:12.766Z,26.65
2023-03-06T19:08:40.371Z,32.22
2023-03-06T19:11:15.457Z,27.38
2023-03-06T19:13:43.492Z,29.45
2023-03-06T19:16:18.500Z,28.17
2023-03-06T19:18:45.518Z,26.88
2023-03-06T19:21:14.870Z,27.70
2023-03-06T19:23:42.607Z,30.67
2023-03-06T19:26:10.226Z,29.35
2023-03-06T19:28:39.486Z,28.85
2023-03-06T19:31:09.902Z,32.88
2023-03-06T19:33:38.120Z,31.70
2023-03-06T19:36:07.945Z,32.70
2023-03-06T19:38:35.051Z,33.28
2023-03-06T19:41:02.221Z,31.52
2023-03-06T19:43:30.856Z,34.78
2023-03-06T19:45:57.941Z,32.20
2023-03-06T19:48:25.097Z,33.47
2023-03-06T19:50:51.985Z,32.38
2023-03-06T19:53:19.125Z,30.83
2023-03-06T19:55:46.028Z,40.67
2023-03-06T19:58:13.139Z,27.23
2023-03-06T20:00:41.562Z,31.65
2023-03-06T20:03:08.527Z,28.75
2023-03-06T20:05:35.425Z,33.55
2023-03-06T20:08:02.422Z,35.38
2023-03-06T20:10:29.306Z,33.45
2023-03-06T20:12:56.362Z,37.63
2023-03-06T20:15:23.502Z,44.72
2023-03-06T20:17:50.473Z,106.15
2023-03-06T20:20:17.832Z,125.97
2023-03-06T20:22:45.072Z,82.25
2023-03-06T20:25:12.136Z,60.40
2023-03-06T20:27:39.827Z,41.25
2023-03-06T20:30:08.154Z,35.22
2023-03-06T20:32:35.915Z,32.80
2023-03-06T20:35:03.636Z,39.55
2023-03-06T20:37:30.762Z,36.10
2023-03-06T20:39:57.753Z,33.00
2023-03-06T20:42:24.779Z,35.25
2023-03-06T20:44:51.652Z,37.88
2023-03-06T20:47:18.704Z,36.33
2023-03-06T20:49:45.822Z,34.00
2023-03-06T20:52:12.852Z,35.72
2023-03-06T20:54:39.774Z,37.55
2023-03-06T20:57:06.795Z,33.30
2023-03-06T20:59:33.803Z,36.60
2023-03-06T21:02:00.748Z,34.92
2023-03-06T21:04:27.911Z,32.25
2023-03-06T21:06:55.018Z,34.95
2023-03-06T21:09:22.355Z,32.80
2023-03-06T21:11:49.737Z,29.15
2023-03-06T21:14:17.047Z,27.42
2023-03-06T21:16:44.602Z,34.42
2023-03-06T21:19:12.378Z,30.45
2023-03-06T21:21:39.539Z,31.42
2023-03-06T21:24:06.678Z,34.67
2023-03-06T21:26:36.199Z,31.83
2023-03-06T21:29:03.976Z,35.47
2023-03-06T21:31:31.414Z,44.38
2023-03-06T21:33:59.526Z,38.25
2023-03-06T21:36:27.215Z,41.42
2023-03-06T21:38:54.788Z,32.47
2023-03-06T21:41:25.097Z,34.40
2023-03-06T21:43:56.853Z,30.92
2023-03-06T21:46:24.969Z,30.95
2023-03-06T21:48:52.218Z,35.53
2023-03-06T21:51:21.006Z,38.17
2023-03-06T21:53:48.486Z,32.33
2023-03-06T21:56:18.704Z,36.20
2023-03-06T21:58:49.896Z,38.88
2023-03-06T22:01:28.512Z,39.97
2023-03-06T22:03:56.134Z,44.08
2023-03-06T22:06:25.526Z,43.80
2023-03-06T22:08:52.812Z,38.38
2023-03-06T22:11:22.323Z,39.30
2023-03-06T22:13:50.685Z,35.95
2023-03-06T22:16:18.517Z,34.00
2023-03-06T22:18:48.028Z,39.45
2023-03-06T22:21:18.565Z,36.03
2023-03-06T22:23:49.818Z,48.50
2023-03-06T22:26:16.697Z,31.98
2023-03-06T22:28:46.539Z,42.08
2023-03-06T22:31:17.036Z,48.15
2023-03-06T22:33:44.779Z,42.20
2023-03-06T22:36:14.477Z,42.63
2023-03-06T22:38:43.166Z,40.22
2023-03-06T22:41:11.630Z,34.20
2023-03-06T22:43:39.031Z,39.28
2023-03-06T22:46:08.940Z,40.38
2023-03-06T22:48:36.492Z,42.35
2023-03-06T22:51:13.330Z,40.35
2023-03-06T22:53:41.118Z,39.70
2023-03-06T22:56:11.533Z,42.00
2023-03-06T22:58:39.244Z,38.42
2023-03-06T23:01:16.563Z,41.15
2023-03-06T23:03:46.582Z,36.22
2023-03-06T23:06:16.801Z,42.88
2023-03-06T23:08:45.379Z,34.67
2023-03-06T23:11:32.119Z,45.38
2023-03-06T23:14:27.601Z,45.13
2023-03-06T23:17:34.083Z,37.40
2023-03-06T23:21:28.005Z,35.43
2023-03-06T23:24:43.903Z,40.53
2023-03-06T23:27:25.906Z,40.20
2023-03-06T23:30:38.105Z,41.63
2023-03-06T23:39:37.430Z,41.63
2023-03-06T23:45:52.118Z,37.80
2023-03-06T23:48:59.995Z,38.65
2023-03-06T23:51:45.229Z,39.67
2023-03-06T23:54:25.116Z,42.90
2023-03-06T23:57:30.465Z,42.90
